Latest Weather Observations for Parndana

IDS60801

Issued at 1:31 am CST Sunday 24 May 2015 (issued every 30 minutes, with the page automatically refreshed every 10 minutes)

About weather observations | Map of weather stations | Latest weather observations for SA | Other Formats
Station Details ID: 022843 Name: PARNDANA CFS AWS Lat: -35.79 Lon: 137.25 Height: 165.0 m
Data from the previous 72 hours. | See also: Recent months at Parndana
Date/Time
CST
Temp
°C
App
Temp
°C
Dew
Point
Rel
Hum
%
Delta-T
°C
Wind Press
QNH
hPa
Press
MSL
hPa
Rain
since 9 am
mm
Dir
 
Spd
km/h
Gust
km/h
Spd
kts
Gust
kts
24/01:30am 8.6 6.8 8.0 96 0.3 NNE 7 7 4 4 - - 0.0
24/01:00am 9.1 7.6 8.5 96 0.3 NNE 6 7 3 4 - - 0.0
24/12:30am 8.5 6.9 7.9 96 0.3 NE 6 7 3 4 - - 0.0
24/12:00am 8.1 6.2 7.5 96 0.3 NE 7 9 4 5 - - 0.0
 
Date/Time
CST
Temp
°C
App
Temp
°C
Dew
Point
Rel
Hum
%
Delta-T
°C
Wind Press
QNH
hPa
Press
MSL
hPa
Rain
since 9 am
mm
Dir
 
Spd
km/h
Gust
km/h
Spd
kts
Gust
kts
23/11:30pm 8.1 6.1 7.3 95 0.4 NE 7 7 4 4 - - 0.0
23/11:00pm 6.9 5.6 5.8 93 0.5 ENE 2 4 1 2 - - 0.0
23/10:30pm 7.9 6.0 6.8 93 0.5 ENE 6 7 3 4 - - 0.0
23/10:00pm 7.8 5.7 6.6 92 0.6 ENE 7 9 4 5 - - 0.0
23/09:30pm 7.8 5.3 6.4 91 0.6 E 9 9 5 5 - - 0.0
23/09:00pm 8.0 5.9 6.6 91 0.7 ENE 7 9 4 5 - - 0.0
23/08:30pm 7.8 5.7 6.6 92 0.6 E 7 9 4 5 - - 0.0
23/08:00pm 8.1 6.2 6.9 92 0.6 ENE 6 7 3 4 - - 0.0
23/07:30pm 7.7 5.5 6.3 91 0.6 ENE 7 9 4 5 - - 0.0
23/07:00pm 8.0 5.5 6.6 91 0.7 ENE 9 9 5 5 - - 0.0
23/06:30pm 8.6 6.2 7.1 90 0.7 ENE 9 11 5 6 - - 0.0
23/06:00pm 9.0 6.7 7.5 90 0.7 ENE 9 13 5 7 - - 0.0
23/05:30pm 9.4 7.2 7.7 89 0.8 ENE 9 11 5 6 - - 0.0
23/05:00pm 10.1 7.9 7.9 86 1.1 ENE 9 11 5 6 - - 0.0
23/04:30pm 11.1 9.0 8.3 83 1.4 ENE 9 9 5 5 - - 0.0
23/04:00pm 12.0 9.6 8.7 80 1.7 ENE 11 15 6 8 - - 0.0
23/03:30pm 12.6 10.6 8.7 77 2.0 NE 9 15 5 8 - - 0.0
23/03:00pm 12.6 10.9 8.3 75 2.1 NE 7 11 4 6 - - 0.0
23/02:30pm 12.5 10.4 8.2 75 2.1 NE 9 13 5 7 - - 0.0
23/02:00pm 12.4 9.9 8.1 75 2.1 NE 11 17 6 9 - - 0.0
23/01:30pm 12.3 9.7 7.8 74 2.2 ENE 11 15 6 8 - - 0.0
23/01:00pm 12.7 9.9 8.4 75 2.2 ENE 13 19 7 10 - - 0.0
23/12:30pm 12.5 10.4 8.2 75 2.1 NE 9 15 5 8 - - 0.0
23/12:00pm 12.7 10.1 7.6 71 2.5 NE 11 17 6 9 - - 0.0
23/11:30am 12.3 10.0 7.6 73 2.3 E 9 15 5 8 - - 0.0
23/11:00am 12.0 9.3 7.3 73 2.3 E 11 17 6 9 - - 0.0
23/10:30am 11.8 9.0 7.1 73 2.3 E 11 17 6 9 - - 0.0
23/10:00am 11.2 8.4 6.9 75 2.1 E 11 15 6 8 - - 0.0
23/09:30am 10.6 8.6 7.1 79 1.7 E 7 9 4 5 - - 0.0
23/09:00am 10.0 8.6 7.3 83 1.3 ENE 4 7 2 4 - - 1.8
23/08:30am 9.3 7.8 6.9 85 1.1 ENE 4 6 2 3 - - 1.8
23/08:00am 8.7 6.8 6.5 86 1.0 ENE 6 7 3 4 - - 1.8
23/07:30am 8.4 5.9 6.4 87 0.9 E 9 11 5 6 - - 1.8
23/07:00am 8.5 5.9 6.3 86 1.0 ENE 9 13 5 7 - - 1.8
23/06:30am 8.8 6.6 6.3 84 1.2 ENE 7 9 4 5 - - 1.8
23/06:00am 8.9 6.7 6.2 83 1.3 ESE 7 11 4 6 - - 1.8
23/05:30am 9.0 7.0 6.4 84 1.2 E 6 9 3 5 - - 1.8
23/05:00am 8.8 6.6 6.3 84 1.2 ESE 7 9 4 5 - - 1.8
23/04:30am 9.0 6.8 6.3 83 1.3 E 7 11 4 6 - - 1.8
23/04:00am 9.1 7.0 6.0 81 1.4 ENE 6 6 3 3 - - 1.8
23/03:30am 8.9 6.6 5.8 81 1.4 E 7 11 4 6 - - 1.8
23/03:00am 8.7 6.0 5.4 80 1.5 E 9 13 5 7 - - 1.8
23/02:30am 8.5 5.4 5.4 81 1.4 E 11 15 6 8 - - 1.8
23/02:00am 9.2 6.6 6.1 81 1.4 ENE 9 13 5 7 - - 1.8
23/01:30am 9.7 6.9 6.8 82 1.4 ENE 11 13 6 7 - - 1.8
23/01:00am 9.9 7.9 7.0 82 1.4 E 7 9 4 5 - - 1.8
23/12:30am 9.2 8.4 6.6 84 1.2 CALM 0 0 0 0 - - 1.8
23/12:00am 9.3 7.2 6.6 83 1.3 ESE 7 9 4 5 - - 1.8
 
Date/Time
CST
Temp
°C
App
Temp
°C
Dew
Point
Rel
Hum
%
Delta-T
°C
Wind Press
QNH
hPa
Press
MSL
hPa
Rain
since 9 am
mm
Dir
 
Spd
km/h
Gust
km/h
Spd
kts
Gust
kts
22/11:30pm 10.1 8.1 7.3 83 1.3 ESE 7 7 4 4 - - 1.8
22/11:00pm 10.3 8.6 7.5 83 1.4 SE 6 7 3 4 - - 1.8
22/10:30pm 10.5 8.2 7.4 81 1.5 ESE 9 11 5 6 - - 1.8
22/10:00pm 10.6 8.0 7.7 82 1.4 SE 11 15 6 8 - - 1.8
22/09:30pm 10.8 8.5 7.3 79 1.7 SE 9 11 5 6 - - 1.8
22/09:00pm 10.8 8.8 6.9 77 1.9 E 7 7 4 4 - - 1.8
22/08:30pm 10.7 8.9 7.2 79 1.7 SE 6 9 3 5 - - 1.8
22/08:00pm 11.2 8.5 7.3 77 1.9 SE 11 15 6 8 - - 1.8
22/07:30pm 11.0 8.4 7.9 81 1.5 SE 11 15 6 8 - - 1.8
22/07:00pm 10.9 9.2 8.5 85 1.2 SE 7 9 4 5 - - 1.8
22/06:30pm 11.2 8.3 8.2 82 1.5 SE 13 15 7 8 - - 1.8
22/06:00pm 11.4 9.1 7.3 76 2.0 SSE 9 15 5 8 - - 1.8
22/05:30pm 11.7 8.8 6.6 71 2.4 SE 11 19 6 10 - - 1.8
22/05:00pm 11.7 8.4 6.4 70 2.5 SE 13 19 7 10 - - 1.8
22/04:30pm 12.1 8.4 6.4 68 2.7 SE 15 20 8 11 - - 1.8
22/04:00pm 12.5 9.9 7.6 72 2.4 SE 11 15 6 8 - - 1.8
22/03:30pm 12.7 9.2 7.4 70 2.6 SE 15 20 8 11 - - 1.8
22/03:00pm 12.7 8.8 7.2 69 2.7 ESE 17 20 9 11 - - 1.8
22/02:30pm 12.9 9.5 7.6 70 2.6 ESE 15 19 8 10 - - 1.8
22/02:00pm 12.8 9.5 7.9 72 2.4 SE 15 20 8 11 - - 1.8
22/01:30pm 13.0 9.8 8.3 73 2.4 ESE 15 20 8 11 - - 1.8
22/01:00pm 12.6 10.7 9.1 79 1.8 SE 9 17 5 9 - - 1.8
22/12:30pm 12.9 10.3 9.4 79 1.8 ESE 13 19 7 10 - - 1.8
22/12:00pm 12.5 10.0 9.7 83 1.4 ESE 13 17 7 9 - - 1.8
22/11:30am 12.1 10.4 11.2 94 0.5 SE 11 13 6 7 - - 1.8
22/11:00am 11.5 9.7 10.9 96 0.3 ESE 11 15 6 8 - - 1.8
22/10:30am 11.3 9.9 10.8 97 0.3 ESE 9 13 5 7 - - 1.8
22/10:00am 11.1 9.7 10.8 98 0.2 SE 9 13 5 7 - - 1.0
22/09:30am 10.7 8.4 10.4 98 0.2 SE 13 20 7 11 - - 0.6
22/09:00am 10.6 7.5 10.3 98 0.2 ESE 17 26 9 14 - - 2.2
22/08:30am 10.7 8.0 10.4 98 0.2 ESE 15 19 8 10 - - 2.0
22/08:00am 10.2 7.8 9.9 98 0.2 ESE 13 19 7 10 - - 2.0
22/07:30am 9.9 7.8 9.6 98 0.2 SE 11 13 6 7 - - 1.8
22/07:00am 9.9 8.1 9.6 98 0.2 SE 9 13 5 7 - - 1.8
22/06:30am 8.8 6.0 8.5 98 0.1 SSE 13 17 7 9 - - 1.6
22/06:00am 9.9 6.7 9.8 99 0.1 SE 17 24 9 13 - - 1.6
22/05:30am 8.0 5.8 7.7 98 0.1 SSE 9 13 5 7 - - 1.4
22/05:00am 7.3 5.5 7.0 98 0.1 SSW 6 6 3 3 - - 1.4
22/04:30am 7.1 5.6 6.8 98 0.1 SSW 4 4 2 2 - - 1.4
22/04:00am 7.4 5.6 7.1 98 0.1 SSE 6 9 3 5 - - 1.4
22/03:30am 8.1 6.3 7.8 98 0.1 S 7 9 4 5 - - 1.4
22/03:00am 7.7 5.8 7.4 98 0.1 S 7 9 4 5 - - 1.4
22/02:30am 7.3 5.3 7.0 98 0.1 SSW 7 9 4 5 - - 1.4
22/02:00am 7.4 5.6 7.1 98 0.1 SSW 6 6 3 3 - - 1.4
22/01:30am 7.8 6.1 7.5 98 0.1 S 6 6 3 3 - - 1.4
22/01:00am 7.7 5.9 7.3 97 0.2 S 6 6 3 3 - - 1.4
22/12:30am 8.2 6.6 7.8 97 0.2 SSW 6 6 3 3 - - 1.4
22/12:00am 8.6 7.1 8.3 98 0.1 SSW 6 7 3 4 - - 1.4
 
Date/Time
CST
Temp
°C
App
Temp
°C
Dew
Point
Rel
Hum
%
Delta-T
°C
Wind Press
QNH
hPa
Press
MSL
hPa
Rain
since 9 am
mm
Dir
 
Spd
km/h
Gust
km/h
Spd
kts
Gust
kts
21/11:30pm 9.2 7.8 8.9 98 0.1 SSW 6 6 3 3 - - 1.4
21/11:00pm 9.0 7.5 8.6 97 0.2 SSW 6 7 3 4 - - 1.4
21/10:30pm 9.2 8.2 8.7 97 0.2 SSW 4 6 2 3 - - 1.4
21/10:00pm 9.0 7.9 8.6 97 0.2 S 4 6 2 3 - - 1.2
21/09:30pm 8.8 7.3 8.4 97 0.2 SSW 6 7 3 4 - - 1.0
21/09:00pm 9.0 7.9 8.4 96 0.3 SSW 4 6 2 3 - - 1.0
21/08:30pm 9.1 7.6 8.5 96 0.3 S 6 7 3 4 - - 1.0
21/08:00pm 9.6 8.1 9.0 96 0.3 S 7 9 4 5 - - 1.0
21/07:30pm 9.7 8.2 9.1 96 0.3 SSW 7 9 4 5 - - 1.0
21/07:00pm 9.5 8.1 8.7 95 0.4 S 6 9 3 5 - - 0.8
21/06:30pm 9.6 8.0 8.8 95 0.4 SSW 7 11 4 6 - - 0.6
21/06:00pm 9.8 7.8 8.7 93 0.5 SSW 9 15 5 8 - - 0.6
21/05:30pm 9.8 8.1 8.2 90 0.8 SSW 7 9 4 5 - - 0.6
21/05:00pm 10.9 8.5 8.5 85 1.2 S 11 17 6 9 - - 0.4
21/04:30pm 11.5 8.0 8.7 83 1.4 S 17 24 9 13 - - 0.4
21/04:00pm 11.8 8.1 8.1 78 1.8 S 17 22 9 12 - - 0.4
21/03:30pm 11.2 8.6 9.5 89 0.9 SSE 13 19 7 10 - - 0.4
21/03:00pm 12.3 8.8 8.8 79 1.8 SSE 17 28 9 15 - - 0.4
21/02:30pm 12.6 9.4 8.3 75 2.1 SSW 15 22 8 12 - - 0.4
21/02:00pm 12.2 8.0 8.3 77 1.9 S 20 30 11 16 - - 0.4
21/01:30pm 12.6 9.1 8.9 78 1.9 S 17 22 9 12 - - 0.4
21/01:00pm 12.1 8.4 8.0 76 2.0 S 17 24 9 13 - - 0.4
21/12:30pm 10.8 8.5 9.1 89 0.9 S 11 15 6 8 - - 0.4
21/12:00pm 10.2 5.0 9.0 92 0.6 SSE 26 37 14 20 - - 0.2
21/11:54am 10.8 6.7 8.6 86 1.1 S 20 37 11 20 - - 0.0
21/11:30am 11.5 9.1 8.7 83 1.4 S 11 17 6 9 - - 0.0
21/11:00am 10.4 5.1 8.5 88 0.9 S 26 41 14 22 - - 0.0
21/10:30am 11.1 8.0 8.8 86 1.1 SSE 15 32 8 17 - - 0.0
21/10:00am 9.6 5.5 7.7 88 0.9 SSE 19 26 10 14 - - 0.0
21/09:30am 10.5 8.2 7.6 82 1.4 S 9 19 5 10 - - 0.0
21/09:00am 9.3 7.8 6.9 85 1.1 SSW 4 6 2 3 - - 0.6
21/08:30am 8.8 6.9 6.6 86 1.0 S 6 9 3 5 - - 0.6
21/08:00am 7.8 6.2 6.3 90 0.7 SW 4 6 2 3 - - 0.6
21/07:30am 7.4 4.7 5.5 88 0.9 S 9 15 5 8 - - 0.6
21/07:00am 5.9 2.8 3.7 86 0.9 SE 9 15 5 8 - - 0.6
21/06:30am 7.5 5.5 4.6 82 1.3 S 4 6 2 3 - - 0.6
21/06:00am 6.5 4.1 4.2 85 1.0 ESE 6 7 3 4 - - 0.6
21/05:30am 7.0 4.5 3.8 80 1.4 SW 6 7 3 4 - - 0.6
21/05:00am 7.3 4.7 3.4 76 1.7 SSW 6 7 3 4 - - 0.6
21/04:30am 7.4 4.4 4.2 80 1.4 S 9 11 5 6 - - 0.6
21/04:00am 7.7 4.4 4.8 82 1.3 S 11 17 6 9 - - 0.6
21/03:30am 8.3 3.9 4.9 79 1.5 SSW 17 24 9 13 - - 0.6
21/03:00am 7.9 4.4 5.4 84 1.1 SSW 13 22 7 12 - - 0.6
21/02:30am 8.2 5.6 6.0 86 1.0 S 9 11 5 6 - - 0.6
21/02:00am 8.2 5.2 6.2 87 0.9 SSE 11 15 6 8 - - 0.6

Other Formats:

Comma delimited format used in spreadsheet applications
http://www.bom.gov.au/fwo/IDS60801/IDS60801.94807.axf

JavaScript Object Notation format (JSON) in row-major order
http://www.bom.gov.au/fwo/IDS60801/IDS60801.94807.json